FNHU/NOV METAR and TAF weather

Enter ICAO airport designator
Station Type Date Time Source
FNHU METAR 2018/01/22 05:00 UTC NOAA

FNHU 220500Z 09005KT 9999 BKN015 15/14 Q1020


Station Type Date Time Source
FNHU Decoded METAR 2018/01/22 05:00 UTC NOAA

Huambo Nova Lisboa , Angola (FNHU) 12-48S 015-45E 1701M
Jan 22, 2018 - 12:00 AM EST / 2018.01.22 0500 UTC
Wind: from the E (090 degrees) at 6 MPH (5 KT):0
Visibility: greater than 7 mile(s):0
Sky conditions: mostly cloudy
Temperature: 59 F (15 C)
Dew Point: 57 F (14 C)
Relative Humidity: 93%
Pressure (altimeter): 30.12 in. Hg (1020 hPa)
ob: FNHU 220500Z 09005KT 9999 BKN015 15/14 Q1020
cycle: 5

Station Type Date Time Source
FNHU TAF 2018/01/22 12:57 UTC NOAA

TAF TAF FNHU 221050Z 2212/2224 23007KT 9999 FEW018 BKN020 FEW023CB PROB30
TEMPO 2217/2223 8000 -DZRA FEW016 BKN018 FEW020CB


Example: see airport list